YYY weather

Mont Joli Airport
Mont-Joli, Quebec, Canada

Public forecast

Using degrees Celsius for public forecast. Weather courtesy of forecast.io.

METAR (pilot weather report)

Retrieved 2019/05/22 04:00 UTC (6 minutes ago):

CYYY 220400Z 25007KT 15SM -RA FEW014 OVC030 04/03 A2993 RMK SC1SC7 SLP138

TAF (pilot weather forecast)

Retrieved 2019/05/22 02:00 UTC (2 hours ago):

TAF CYYY 220138Z 2202/2214 04007KT P6SM OVC025 TEMPO 2202/2205 4SM -RA BR OVC012 BECMG 2202/2203 35012KT FM220500 35010KT P6SM BKN030 TEMPO 2205/2214 BKN020 RMK NXT FCST BY 220800Z